Time;durP1;ratioP1;P1;durP2;ratioP2;P2;SDS_P1;SDS_P2;PMS_P1;PMS_P2;Temp;Humidity;BMP_temperature;BMP_pressure;BME280_temperature;BME280_humidity;BME280_pressure;Samples;Min_cycle;Max_cycle;Signal;HPM_P1;HPM_P2
2021/01/23 00:00:15;;;;;;;20.27;13.07;;;6.70;99.90;;;6.22;76.34;99306.59;5091922;28;20033;-73
2021/01/23 00:02:42;;;;;;;25.67;13.53;;;6.60;99.90;;;6.81;76.52;99387.25;5091879;28;20048;-73
2021/01/23 00:05:11;;;;;;;23.83;14.13;;;6.70;99.90;;;6.62;76.64;99392.75;5091986;28;20489;-73
2021/01/23 00:07:38;;;;;;;29.77;13.57;;;6.60;99.90;;;6.70;76.69;99388.25;5092052;28;20051;-75
2021/01/23 00:10:07;;;;;;;24.20;13.60;;;6.60;99.90;;;6.47;76.61;99379.78;5091775;28;20086;-70
2021/01/23 00:12:36;;;;;;;24.53;14.40;;;6.50;99.90;;;6.28;77.50;99372.16;5091608;28;20044;-76
2021/01/23 00:15:04;;;;;;;24.20;14.63;;;6.30;99.90;;;6.18;78.29;99369.63;5092070;28;20040;-72
2021/01/23 00:17:32;;;;;;;24.57;14.83;;;6.20;99.90;;;5.98;79.28;99367.22;5092004;28;20516;-71
2021/01/23 00:19:59;;;;;;;25.87;14.03;;;6.10;99.90;;;5.97;79.71;99377.75;5091712;28;20139;-71
2021/01/23 00:22:27;;;;;;;27.77;15.10;;;6.00;99.90;;;5.95;80.42;99376.88;5073768;28;20044;-72
2021/01/23 00:24:55;;;;;;;22.03;14.20;;;6.00;99.90;;;5.92;80.97;99369.06;5091738;28;20079;-71
2021/01/23 00:27:22;;;;;;;25.07;15.17;;;5.90;99.90;;;5.96;81.13;99371.63;5091569;28;20048;-71
2021/01/23 00:29:50;;;;;;;20.87;15.07;;;5.90;99.90;;;6.08;81.12;99374.13;5091612;28;20452;-71
2021/01/23 00:32:18;;;;;;;23.70;14.20;;;6.00;99.90;;;6.13;80.74;99351.34;5091621;28;20036;-72
2021/01/23 00:34:45;;;;;;;24.77;14.67;;;6.10;99.90;;;6.31;80.44;99368.59;5091756;28;20429;-72
2021/01/23 00:37:13;;;;;;;21.90;15.20;;;6.20;99.90;;;6.48;79.99;99369.31;5091544;28;20502;-71
2021/01/23 00:39:40;;;;;;;28.50;14.83;;;6.30;99.90;;;6.38;79.98;99362.41;5091684;28;20087;-72
2021/01/23 00:42:08;;;;;;;21.63;14.43;;;6.40;99.90;;;6.54;79.60;99368.34;5073048;28;20040;-72
2021/01/23 00:44:36;;;;;;;26.23;15.23;;;6.40;99.90;;;6.56;79.56;99371.81;5073769;28;20075;-71
2021/01/23 00:47:04;;;;;;;29.53;15.30;;;6.50;99.90;;;6.28;79.70;99361.66;5074172;28;20470;-71
2021/01/23 00:49:32;;;;;;;19.10;14.10;;;6.30;99.90;;;6.24;79.99;99356.44;5076945;28;20452;-72
2021/01/23 00:52:00;;;;;;;23.43;15.43;;;6.30;99.90;;;6.12;80.29;99357.44;5095114;28;20123;-72
2021/01/23 00:54:28;;;;;;;25.03;14.33;;;6.20;99.90;;;6.09;80.72;99359.25;5094996;28;20121;-71
2021/01/23 00:56:55;;;;;;;23.70;15.10;;;6.10;99.90;;;6.10;80.66;99348.72;5076594;28;20063;-72
2021/01/23 00:59:22;;;;;;;21.93;14.67;;;6.10;99.90;;;6.26;80.66;99345.06;5094983;28;20170;-71
2021/01/23 01:01:50;;;;;;;22.27;13.90;;;6.20;99.90;;;6.33;80.68;99335.31;5094722;28;20366;-72
2021/01/23 01:04:32;;;;;;;22.20;15.13;;;6.30;99.90;;;6.47;80.13;99337.78;5076687;28;20055;-71
2021/01/23 01:06:59;;;;;;;21.10;14.90;;;6.40;99.90;;;6.58;79.83;99331.50;5094549;28;20052;-71
2021/01/23 01:09:27;;;;;;;22.40;13.60;;;6.40;99.90;;;6.58;79.53;99330.66;5095000;28;20044;-71
2021/01/23 01:11:54;;;;;;;21.67;14.03;;;6.50;99.90;;;6.65;79.28;99332.28;5094527;28;20075;-72
2021/01/23 01:14:21;;;;;;;22.07;14.07;;;6.50;99.90;;;6.77;79.16;99337.41;5094570;28;20072;-72
2021/01/23 01:16:49;;;;;;;24.07;14.97;;;6.60;99.90;;;6.84;78.74;99336.41;5094509;28;20084;-71
2021/01/23 01:19:16;;;;;;;22.47;14.67;;;6.70;99.90;;;6.83;78.76;99337.31;5094470;28;20086;-71
2021/01/23 01:21:45;;;;;;;20.93;13.47;;;6.70;99.90;;;6.87;78.48;99325.88;5094391;28;20498;-71
2021/01/23 01:24:12;;;;;;;22.90;14.40;;;6.70;99.90;;;6.92;78.53;99342.44;5094387;28;20093;-71
2021/01/23 01:26:39;;;;;;;23.87;14.17;;;6.70;99.90;;;6.94;78.97;99338.00;5094299;28;20055;-71
2021/01/23 01:29:07;;;;;;;20.13;13.97;;;6.80;99.90;;;6.95;78.97;99334.50;5094318;28;20071;-71
2021/01/23 01:31:34;;;;;;;20.87;14.50;;;6.80;99.90;;;6.91;79.47;99332.81;5094240;28;20054;-71
2021/01/23 01:34:02;;;;;;;24.70;15.13;;;6.80;99.90;;;6.99;79.52;99330.91;5094154;28;20040;-71
2021/01/23 01:36:30;;;;;;;22.90;15.23;;;6.80;99.90;;;6.96;79.75;99326.59;5094232;28;20048;-71
2021/01/23 01:38:58;;;;;;;20.37;14.93;;;6.80;99.90;;;6.92;79.58;99327.53;5094106;28;20097;-71
2021/01/23 01:41:26;;;;;;;17.27;14.33;;;6.80;99.90;;;7.03;79.79;99329.97;5093967;28;20048;-72
2021/01/23 01:43:53;;;;;;;21.43;13.63;;;6.80;99.90;;;7.07;79.40;99334.31;5075890;28;20489;-71
2021/01/23 01:46:21;;;;;;;22.23;14.80;;;6.90;99.90;;;7.04;79.40;99337.00;5093941;28;20546;-71
2021/01/23 01:48:50;;;;;;;22.30;15.27;;;6.90;99.90;;;7.10;79.53;99339.53;5075627;28;20075;-71
2021/01/23 01:51:17;;;;;;;23.67;16.30;;;6.90;99.90;;;7.10;79.31;99334.28;5075929;28;20362;-71
2021/01/23 01:53:45;;;;;;;32.13;16.93;;;6.90;99.90;;;6.96;79.43;99329.22;5093967;28;20550;-71
2021/01/23 01:56:13;;;;;;;23.53;16.13;;;6.90;99.90;;;6.98;79.44;99331.81;5093665;28;20146;-72
2021/01/23 01:58:41;;;;;;;24.53;16.60;;;6.80;99.90;;;7.00;79.63;99324.78;5093346;28;20040;-71
2021/01/23 02:01:08;;;;;;;25.17;16.60;;;6.80;99.90;;;7.00;79.73;99323.03;5093467;28;20048;-70
2021/01/23 02:04:04;;;;;;;23.63;16.90;;;6.80;99.90;;;7.02;79.35;99331.78;5093612;28;20075;-72
2021/01/23 02:06:53;;;;;;;24.77;16.03;;;6.80;99.90;;;7.09;79.25;99333.41;5090659;28;20491;-71
2021/01/23 02:09:35;;;;;;;28.63;17.13;;;6.90;99.90;;;7.03;79.30;99335.25;5093492;28;20785;-71
2021/01/23 02:12:16;;;;;;;27.17;16.77;;;6.90;99.90;;;7.09;79.20;99317.63;5093545;28;20044;-72
2021/01/23 02:14:54;;;;;;;26.90;17.20;;;6.90;99.90;;;7.12;79.21;99321.97;5093615;28;20436;-72
2021/01/23 02:17:29;;;;;;;23.77;17.37;;;6.90;99.90;;;7.00;79.48;99320.41;5093488;28;20475;-72
2021/01/23 02:20:37;;;;;;;24.67;17.77;;;6.90;99.90;;;7.05;80.03;99321.19;5093363;28;20050;-71
2021/01/23 02:23:12;;;;;;;25.73;18.43;;;6.80;99.90;;;7.01;80.38;99313.38;5093263;28;20127;-72
2021/01/23 02:25:58;;;;;;;27.17;19.13;;;6.80;99.90;;;6.63;80.49;99258.78;5074947;28;20570;-72
2021/01/23 02:29:10;;;;;;;27.77;19.60;;;6.80;99.90;;;6.86;81.18;99297.84;5093144;28;20503;-72
2021/01/23 02:31:43;;;;;;;30.77;20.43;;;6.80;99.90;;;6.94;81.04;99306.47;5087962;28;20060;-72
2021/01/23 02:34:16;;;;;;;30.40;19.57;;;6.80;99.90;;;6.98;80.98;99309.06;5093109;28;20456;-71
2021/01/23 02:36:45;;;;;;;29.43;19.33;;;6.80;99.90;;;6.16;81.05;99172.81;5074735;28;20536;-72
2021/01/23 02:39:14;;;;;;;33.60;21.17;;;6.70;99.90;;;6.84;81.40;99295.25;5092915;28;20071;-72
2021/01/23 02:41:43;;;;;;;29.07;20.63;;;6.70;99.90;;;6.85;81.38;99302.22;5074738;28;20048;-72
2021/01/23 02:44:10;;;;;;;33.37;20.90;;;6.70;99.90;;;6.86;81.50;99292.59;5074599;28;20090;-72
2021/01/23 02:46:39;;;;;;;29.20;20.10;;;6.70;99.90;;;6.87;81.43;99294.34;5092927;28;20427;-72
2021/01/23 02:49:07;;;;;;;26.47;19.23;;;6.70;99.90;;;6.94;81.44;99299.47;5092827;28;20130;-72
2021/01/23 02:51:44;;;;;;;23.63;17.90;;;6.70;99.90;;;6.83;80.87;99258.47;5092662;28;20044;-71
2021/01/23 02:54:18;;;;;;;24.10;18.40;;;6.80;99.90;;;6.93;81.09;99281.09;5092909;28;20097;-71
2021/01/23 02:56:47;;;;;;;24.67;17.70;;;6.80;99.90;;;6.94;80.66;99290.72;5092726;28;20443;-70
2021/01/23 02:59:18;;;;;;;23.73;16.83;;;6.80;99.90;;;6.96;80.96;99292.44;5092644;28;20052;-71
2021/01/23 03:01:46;;;;;;;;;;;6.80;99.90;;;6.99;80.38;99283.59;5092904;28;20093;-70
2021/01/23 03:04:15;;;;;;;22.20;16.40;;;6.80;99.90;;;6.96;80.34;99288.94;5092466;28;20345;-70
2021/01/23 03:06:44;;;;;;;21.73;15.60;;;6.80;99.90;;;7.02;80.18;99286.22;5092491;28;20079;-71
2021/01/23 03:09:22;;;;;;;18.57;15.37;;;6.80;99.90;;;6.96;80.35;99291.56;5092095;28;20529;-71
2021/01/23 03:11:51;;;;;;;20.43;14.87;;;6.80;99.90;;;6.95;80.47;99279.31;5092339;28;20048;-70
2021/01/23 03:14:20;;;;;;;19.43;14.87;;;6.80;99.90;;;7.02;80.10;99270.44;5074210;28;20452;-70
2021/01/23 03:16:50;;;;;;;17.87;14.40;;;6.80;99.90;;;7.02;80.32;99283.59;5092342;28;20039;-71
2021/01/23 03:19:19;;;;;;;26.50;14.95;;;6.80;99.90;;;7.12;80.00;99272.03;5074415;28;20470;-71
2021/01/23 03:21:50;;;;;;;18.97;14.90;;;6.90;99.90;;;6.99;80.01;99279.22;5074181;28;20493;-70
2021/01/23 03:24:19;;;;;;;20.97;14.73;;;6.90;99.90;;;6.93;80.28;99268.81;5092344;28;20051;-71
2021/01/23 03:26:48;;;;;;;19.70;14.30;;;6.80;99.90;;;6.96;80.49;99262.66;5092372;28;20119;-70
2021/01/23 03:29:16;;;;;;;20.87;15.77;;;6.80;99.90;;;6.94;79.80;99272.31;5092195;28;20124;-70
2021/01/23 03:31:44;;;;;;;20.57;15.77;;;6.80;99.90;;;6.98;79.92;99292.41;5092388;28;20033;-70
2021/01/23 03:34:13;;;;;;;23.67;15.10;;;6.80;99.90;;;6.81;79.66;99260.28;5092261;28;20446;-70
2021/01/23 03:36:41;;;;;;;24.10;14.83;;;6.70;99.90;;;6.76;80.05;99267.34;5092089;28;20062;-71
2021/01/23 03:39:09;;;;;;;19.67;14.53;;;6.70;99.90;;;6.84;79.70;99268.09;5092045;28;20056;-70
2021/01/23 03:41:37;;;;;;;18.93;13.47;;;6.70;99.90;;;6.77;80.02;99272.59;5091915;28;20052;-70
2021/01/23 03:44:05;;;;;;;18.63;15.47;;;6.60;99.90;;;6.82;79.59;99264.63;5092291;28;20044;-71
2021/01/23 03:46:33;;;;;;;20.53;14.10;;;6.70;99.90;;;6.83;79.46;99264.59;5092218;28;20089;-71
2021/01/23 03:49:01;;;;;;;16.93;13.80;;;6.70;99.90;;;6.85;79.27;99254.06;5092195;28;20066;-71
2021/01/23 03:51:31;;;;;;;18.13;13.17;;;6.70;99.90;;;6.77;79.51;99253.31;5091922;28;20066;-71
2021/01/23 03:53:58;;;;;;;15.37;12.10;;;6.60;99.90;;;6.73;79.79;99259.50;5073742;28;20054;-70
2021/01/23 03:56:25;;;;;;;16.13;12.47;;;6.60;99.90;;;6.09;80.12;99152.81;5092124;28;20462;-71
2021/01/23 03:58:53;;;;;;;14.57;12.00;;;6.50;99.90;;;6.53;80.27;99245.78;5092107;28;20097;-70
2021/01/23 04:01:20;;;;;;;16.70;10.97;;;6.40;99.90;;;6.59;80.55;99258.84;5091991;28;20072;-71
2021/01/23 04:03:48;;;;;;;15.13;10.67;;;6.40;99.90;;;6.55;80.68;99259.78;5091880;28;20055;-70
2021/01/23 04:06:15;;;;;;;13.27;10.07;;;6.40;99.90;;;6.40;80.80;99260.88;5091864;28;20451;-71
2021/01/23 04:08:43;;;;;;;16.17;10.53;;;6.30;99.90;;;6.42;80.98;99242.47;5091747;28;20044;-71
2021/01/23 04:11:11;;;;;;;14.97;10.63;;;6.30;99.90;;;6.45;81.15;99263.41;5091739;28;20075;-70
2021/01/23 04:13:38;;;;;;;11.27;10.07;;;6.20;99.90;;;6.41;81.27;99246.84;5091543;28;20058;-70
2021/01/23 04:16:06;;;;;;;12.47;10.17;;;6.30;99.90;;;6.38;81.32;99252.13;5091849;28;20098;-70
2021/01/23 04:18:33;;;;;;;16.60;11.70;;;6.20;99.90;;;6.38;81.38;99260.03;5091721;28;20044;-71
2021/01/23 04:21:01;;;;;;;14.10;10.67;;;6.20;99.90;;;6.40;81.49;99258.25;5092147;28;20072;-71
2021/01/23 04:23:28;;;;;;;13.07;11.70;;;6.30;99.90;;;6.46;81.26;99246.78;5095634;28;20055;-70
2021/01/23 04:25:56;;;;;;;17.63;12.43;;;6.30;99.90;;;6.43;81.19;99241.59;5095536;28;20520;-71
2021/01/23 04:28:24;;;;;;;17.97;12.80;;;6.30;99.90;;;6.33;81.54;99249.56;5095622;28;20078;-71
2021/01/23 04:30:51;;;;;;;21.27;13.73;;;6.20;99.90;;;6.44;81.54;99243.31;5095412;28;20043;-70
2021/01/23 04:33:18;;;;;;;19.37;14.00;;;6.30;99.90;;;6.50;81.54;99245.84;5095335;28;20115;-70
2021/01/23 04:35:46;;;;;;;17.77;13.63;;;6.30;99.90;;;6.48;81.65;99242.38;5095251;28;20512;-70
2021/01/23 04:38:13;;;;;;;18.20;13.47;;;6.30;99.90;;;6.51;81.49;99242.31;5095277;28;20050;-71
2021/01/23 04:40:41;;;;;;;18.43;12.53;;;6.30;99.90;;;6.44;81.50;99227.56;5076730;28;20089;-70
2021/01/23 04:43:10;;;;;;;15.43;12.30;;;6.30;99.90;;;6.53;81.35;99237.91;5095224;28;20059;-70
2021/01/23 04:45:37;;;;;;;15.93;12.47;;;6.40;99.90;;;6.38;81.36;99212.75;5076975;28;20129;-70
2021/01/23 04:48:07;;;;;;;14.13;11.03;;;6.30;99.90;;;6.44;81.34;99233.69;5076816;28;20050;-70
2021/01/23 04:50:34;;;;;;;14.83;11.53;;;6.30;99.90;;;6.48;81.46;99226.63;5095331;28;20066;-71
2021/01/23 04:53:02;;;;;;;15.73;10.70;;;6.40;99.90;;;6.47;81.18;99230.13;5095024;28;20079;-70
2021/01/23 04:55:29;;;;;;;13.53;10.50;;;6.30;99.90;;;6.45;81.44;99226.66;5095105;28;20048;-70
2021/01/23 04:57:58;;;;;;;15.47;11.47;;;6.30;99.90;;;6.54;81.28;99226.53;5076878;28;20131;-70
2021/01/23 05:00:27;;;;;;;12.87;10.73;;;6.40;99.90;;;6.01;81.12;99144.16;5094915;28;20094;-70
2021/01/23 05:03:01;;;;;;;13.43;10.10;;;6.40;99.90;;;6.48;81.34;99218.75;5094677;28;20044;-70
2021/01/23 05:05:30;;;;;;;10.10;9.03;;;6.30;99.90;;;6.48;81.07;99222.25;5095008;28;20071;-70
2021/01/23 05:08:08;;;;;;;12.43;9.43;;;6.30;99.90;;;6.50;80.96;99224.84;5076756;28;20098;-70
2021/01/23 05:10:36;;;;;;;12.83;9.40;;;6.40;99.90;;;6.46;80.76;99228.41;5094412;28;20036;-70
2021/01/23 05:13:14;;;;;;;11.60;8.70;;;6.30;99.90;;;6.48;81.28;99224.00;5094365;28;20083;-69
2021/01/23 05:15:45;;;;;;;11.67;8.50;;;6.30;99.90;;;6.47;81.12;99224.88;5094568;28;20052;-71
2021/01/23 05:18:14;;;;;;;10.20;7.63;;;6.30;99.90;;;6.52;81.09;99225.69;5094730;28;20501;-71
2021/01/23 05:20:45;;;;;;;10.67;8.20;;;6.30;99.90;;;6.45;81.16;99226.66;5094502;28;20040;-71
2021/01/23 05:23:14;;;;;;;;;;;6.40;99.90;;;6.42;81.22;99237.22;5076824;28;20294;-71
2021/01/23 05:25:44;;;;;;;8.93;6.73;;;6.30;99.90;;;6.39;81.33;99225.84;5094246;28;19927;-71
2021/01/23 05:28:13;;;;;;;12.98;7.50;;;6.30;99.90;;;6.36;80.72;99223.28;5094358;28;20089;-70
2021/01/23 05:30:44;;;;;;;8.50;6.97;;;6.30;99.90;;;5.79;80.92;99103.34;5094340;28;20059;-70
2021/01/23 05:33:14;;;;;;;8.13;7.20;;;6.30;99.90;;;6.43;81.06;99228.47;5093631;28;20097;-70
2021/01/23 05:35:44;;;;;;;10.52;7.07;;;6.30;99.90;;;6.42;80.95;99227.59;5094326;28;20040;-70
2021/01/23 05:38:29;;;;;;;10.85;6.43;;;6.20;99.90;;;6.47;80.66;99224.88;5094122;28;20048;-70
2021/01/23 05:41:10;;;;;;;9.43;6.97;;;6.30;99.90;;;6.41;80.58;99227.59;5076006;28;20052;-70
2021/01/23 05:43:40;;;;;;;12.23;6.72;;;6.30;99.90;;;5.94;80.82;99149.53;5094163;28;20489;-71
2021/01/23 05:46:10;;;;;;;9.07;6.65;;;6.30;99.90;;;6.30;80.74;99222.50;5094101;28;20054;-71
2021/01/23 05:48:42;;;;;;;8.23;7.40;;;6.20;99.90;;;6.26;80.87;99226.91;5093846;28;20040;-71
2021/01/23 05:51:10;;;;;;;12.00;7.87;;;6.20;99.90;;;6.08;81.03;99185.16;5094149;28;20044;-71
2021/01/23 05:53:37;;;;;;;9.87;8.40;;;6.20;99.90;;;6.34;80.92;99213.69;5093909;28;20044;-71
2021/01/23 05:56:06;;;;;;;10.07;8.10;;;6.20;99.90;;;6.22;80.63;99183.22;5093905;28;20455;-71
2021/01/23 05:58:35;;;;;;;10.43;8.00;;;6.20;99.90;;;6.21;80.83;99212.97;5093799;28;20047;-71
2021/01/23 06:01:08;;;;;;;11.20;8.37;;;6.10;99.90;;;6.22;80.89;99213.84;5093629;28;20075;-71
2021/01/23 06:03:40;;;;;;;13.47;9.43;;;6.00;99.90;;;6.20;81.00;99224.38;5093720;28;20576;-70
2021/01/23 06:06:07;;;;;;;10.77;8.27;;;6.10;99.90;;;6.13;80.89;99224.47;5093785;28;20048;-71
2021/01/23 06:08:43;;;;;;;10.20;8.10;;;6.00;99.90;;;6.12;80.85;99228.84;5093620;28;20467;-70
2021/01/23 06:11:39;;;;;;;11.57;8.30;;;6.00;99.90;;;6.05;81.40;99240.34;5075617;28;20052;-71
2021/01/23 06:14:07;;;;;;;12.00;8.20;;;6.00;99.90;;;6.09;81.46;99241.16;5093477;28;20048;-71
2021/01/23 06:16:39;;;;;;;8.93;8.07;;;5.90;99.90;;;6.14;81.62;99242.81;5093450;28;20055;-70
2021/01/23 06:19:40;;;;;;;9.57;8.07;;;6.00;99.90;;;6.09;81.46;99235.91;5075185;28;20046;-70
2021/01/23 06:22:09;;;;;;;8.63;7.50;;;6.00;99.90;;;6.05;82.05;99221.97;5093241;28;20039;-71
2021/01/23 06:24:56;;;;;;;9.23;8.33;;;5.90;99.90;;;5.81;81.92;99197.72;5093297;28;20139;-71
2021/01/23 06:27:46;;;;;;;13.07;7.80;;;5.90;99.90;;;6.09;82.01;99236.78;5093321;28;20071;-70
2021/01/23 06:30:30;;;;;;;9.48;8.45;;;5.90;99.90;;;6.03;81.98;99234.22;5093141;28;20540;-70
2021/01/23 06:32:58;;;;;;;8.07;7.37;;;6.00;99.90;;;6.06;81.67;99244.69;5093088;28;20482;-71
2021/01/23 06:35:26;;;;;;;11.77;8.37;;;5.90;99.90;;;6.10;81.93;99254.25;5093173;28;20535;-71
2021/01/23 06:38:12;;;;;;;12.63;7.67;;;5.90;99.90;;;5.92;82.16;99266.75;5093012;28;20360;-71
2021/01/23 06:40:40;;;;;;;11.70;8.73;;;5.80;99.90;;;5.96;82.10;99235.19;5092818;28;20052;-70
2021/01/23 06:43:08;;;;;;;9.93;7.40;;;5.80;99.90;;;5.94;82.18;99251.84;5092892;28;20043;-71
2021/01/23 06:45:37;;;;;;;10.17;7.73;;;5.80;99.90;;;5.81;82.35;99229.22;5092859;28;20052;-70
2021/01/23 06:48:06;;;;;;;11.73;8.07;;;5.80;99.90;;;5.86;82.50;99256.31;5074753;28;20492;-71
2021/01/23 06:50:39;;;;;;;9.30;7.53;;;5.70;99.90;;;5.77;82.85;99238.88;5092744;28;20040;-71
2021/01/23 06:53:19;;;;;;;12.73;7.33;;;5.70;99.90;;;5.84;82.79;99248.47;5092808;28;20052;-70
2021/01/23 06:55:51;;;;;;;10.75;7.57;;;5.70;99.90;;;5.78;82.87;99245.88;5074697;28;20048;-71
2021/01/23 06:58:24;;;;;;;14.43;7.40;;;5.70;99.90;;;5.25;82.86;99138.09;5092564;28;20394;-72
2021/01/23 07:00:55;;;;;;;9.23;7.90;;;5.70;99.90;;;5.81;83.34;99248.44;5092633;28;20048;-71
2021/01/23 07:03:23;;;;;;;12.40;8.05;;;5.70;99.90;;;5.98;83.21;99272.75;5092977;28;20051;-71
2021/01/23 07:05:55;;;;;;;10.13;7.57;;;5.80;99.90;;;6.09;82.96;99265.66;5092716;28;20397;-71
2021/01/23 07:08:27;;;;;;;12.67;7.57;;;5.90;99.90;;;6.02;82.82;99277.09;5092962;28;20048;-71
2021/01/23 07:11:16;;;;;;;12.33;7.83;;;5.90;99.90;;;5.94;83.42;99278.09;5092392;28;20048;-72
2021/01/23 07:14:02;;;;;;;12.27;8.10;;;5.80;99.90;;;5.93;83.72;99279.81;5092664;28;20056;-72
2021/01/23 07:16:32;;;;;;;14.40;8.33;;;5.80;99.90;;;5.17;83.94;99168.75;5074712;28;20562;-71
2021/01/23 07:19:02;;;;;;;10.40;7.70;;;5.70;99.90;;;5.23;84.09;99176.56;5074341;28;20058;-72
2021/01/23 07:21:34;;;;;;;12.32;7.95;;;5.70;99.90;;;5.92;84.09;99293.81;5092334;28;20048;-73
2021/01/23 07:24:03;;;;;;;13.53;8.17;;;5.80;99.90;;;5.87;84.54;99300.88;5092349;28;20040;-73
2021/01/23 07:26:31;;;;;;;12.47;8.23;;;5.70;99.90;;;5.88;84.71;99296.50;5092225;28;20170;-73
2021/01/23 07:28:59;;;;;;;9.57;8.17;;;5.70;99.90;;;5.84;84.52;99285.19;5092217;28;20052;-73
2021/01/23 07:31:29;;;;;;;10.80;8.50;;;5.70;99.90;;;5.98;84.66;99306.03;5074366;28;20492;-73
2021/01/23 07:33:59;;;;;;;35.00;10.70;;;5.80;99.90;;;5.83;84.64;99277.28;5092778;28;20134;-72
2021/01/23 07:36:35;;;;;;;16.73;9.10;;;5.80;99.90;;;5.93;84.83;99310.44;5074038;28;20072;-71
2021/01/23 07:39:08;;;;;;;14.60;8.63;;;5.80;99.90;;;5.36;84.86;99231.44;5091866;28;20060;-71
2021/01/23 07:41:38;;;;;;;11.93;8.63;;;5.80;99.90;;;5.61;85.33;99262.69;5092295;28;20051;-70
2021/01/23 07:44:09;;;;;;;10.00;8.68;;;5.80;99.90;;;5.95;85.25;99319.16;5092151;28;20097;-70
2021/01/23 07:46:41;;;;;;;14.57;9.10;;;5.80;99.90;;;5.92;85.37;99309.56;5092099;28;20040;-71
2021/01/23 07:49:19;;;;;;;14.83;9.77;;;5.80;99.90;;;5.82;85.55;99286.06;5092101;28;20040;-71
2021/01/23 07:51:48;;;;;;;12.77;9.50;;;5.80;99.90;;;6.09;85.24;99314.63;5073809;28;20072;-72
2021/01/23 07:54:16;;;;;;;14.47;10.40;;;5.90;99.90;;;6.18;85.20;99310.16;5092539;28;20044;-73
2021/01/23 07:56:56;;;;;;;16.60;10.10;;;6.00;99.90;;;6.22;85.00;99306.59;5094126;28;20052;-72
2021/01/23 07:59:41;;;;;;;15.87;9.73;;;6.00;99.90;;;6.11;84.79;99287.50;5096195;28;20055;-71
2021/01/23 08:02:09;;;;;;;12.07;9.67;;;6.00;99.90;;;6.21;84.87;99317.97;5095977;28;20055;-71
2021/01/23 08:04:39;;;;;;;14.13;9.83;;;6.00;99.90;;;6.22;84.70;99319.72;5077936;28;20489;-72
2021/01/23 08:07:19;;;;;;;10.35;9.23;;;6.00;99.90;;;5.86;84.66;99256.31;5077901;28;20585;-72
2021/01/23 08:09:48;;;;;;;11.60;9.30;;;6.00;99.90;;;6.16;84.64;99306.66;5096076;28;20052;-71
2021/01/23 08:12:18;;;;;;;11.77;9.27;;;6.00;99.90;;;6.06;84.79;99299.78;5093643;28;20489;-68
2021/01/23 08:14:52;;;;;;;;;;;6.00;99.90;;;6.16;85.01;99319.78;5096356;28;20055;-74
2021/01/23 08:17:20;;;;;;;16.20;9.67;;;6.00;99.90;;;6.13;85.19;99303.22;5095824;28;19943;-75
2021/01/23 08:19:52;;;;;;;11.07;9.87;;;6.00;99.90;;;6.30;85.14;99320.50;5096092;28;20108;-71
2021/01/23 08:22:20;;;;;;;13.47;8.80;;;6.10;99.90;;;6.35;84.86;99325.69;5095491;28;20036;-69
2021/01/23 08:24:47;;;;;;;11.93;9.40;;;6.10;99.90;;;6.45;84.47;99322.06;5077428;28;20523;-70
2021/01/23 08:27:20;;;;;;;12.13;8.83;;;6.20;99.90;;;6.40;84.33;99318.63;5077121;28;20138;-71
2021/01/23 08:29:49;;;;;;;9.90;8.40;;;6.20;99.90;;;6.38;84.09;99321.28;5077579;28;20063;-71
2021/01/23 08:32:16;;;;;;;10.97;7.43;;;6.20;99.90;;;6.39;83.61;99316.88;5095421;28;20044;-70
2021/01/23 08:34:46;;;;;;;11.67;8.10;;;6.20;99.90;;;6.44;83.68;99325.59;5095313;28;20515;-70
2021/01/23 08:37:14;;;;;;;10.80;7.63;;;6.20;99.90;;;6.47;83.49;99324.66;5095157;28;20047;-70
2021/01/23 08:39:44;;;;;;;14.70;8.13;;;6.30;99.90;;;6.46;83.36;99329.06;5095297;28;20089;-73
2021/01/23 08:42:12;;;;;;;16.60;9.48;;;6.30;99.90;;;6.47;83.76;99324.66;5095309;28;20485;-72
2021/01/23 08:44:40;;;;;;;13.47;9.27;;;6.30;99.90;;;6.47;84.00;99343.03;5095102;28;20541;-71
2021/01/23 08:47:08;;;;;;;13.03;9.10;;;6.30;99.90;;;5.93;84.10;99245.72;5095070;28;20071;-73
2021/01/23 08:49:35;;;;;;;15.07;9.27;;;6.20;99.90;;;6.44;84.19;99309.81;5095014;28;20047;-71
2021/01/23 08:52:03;;;;;;;12.17;8.23;;;6.30;99.90;;;6.63;84.04;99337.56;5094952;28;20076;-72
2021/01/23 08:54:31;;;;;;;12.30;9.47;;;6.40;99.90;;;6.63;83.94;99340.22;5094919;28;20128;-72
2021/01/23 08:57:00;;;;;;;10.63;8.60;;;6.40;99.90;;;6.66;83.39;99336.69;5094889;28;20486;-72
2021/01/23 08:59:27;;;;;;;14.70;9.27;;;6.40;99.90;;;6.71;83.48;99337.47;5095064;28;20063;-73
2021/01/23 09:01:55;;;;;;;12.13;8.67;;;6.50;99.90;;;6.83;83.44;99340.78;5094728;28;20050;-75
2021/01/23 09:04:22;;;;;;;14.80;7.93;;;6.60;99.90;;;6.81;82.76;99342.59;5094767;28;20055;-76
2021/01/23 09:06:50;;;;;;;10.57;7.87;;;6.60;99.90;;;6.78;82.75;99334.75;5094328;28;20044;-76
2021/01/23 09:09:17;;;;;;;9.70;8.47;;;6.60;99.90;;;6.79;82.70;99333.00;5075473;28;20047;-75
2021/01/23 09:11:45;;;;;;;11.40;8.03;;;6.60;99.90;;;6.64;82.52;99309.56;5094634;28;20509;-69
2021/01/23 09:14:13;;;;;;;12.10;8.40;;;6.60;99.90;;;6.91;82.31;99338.91;5076092;28;20090;-73
2021/01/23 09:16:41;;;;;;;13.00;9.07;;;6.70;99.90;;;6.89;82.18;99338.06;5094672;28;20497;-75
2021/01/23 09:19:09;;;;;;;13.37;8.40;;;6.70;99.90;;;6.86;82.19;99337.25;5094597;28;20052;-68
2021/01/23 09:21:36;;;;;;;13.67;8.53;;;6.70;99.90;;;6.63;82.12;99276.28;5094718;28;20063;-67
2021/01/23 09:24:05;;;;;;;14.37;9.10;;;6.70;99.90;;;7.01;81.86;99335.28;5094395;28;20071;-69
2021/01/23 09:26:33;;;;;;;10.37;8.77;;;6.80;99.90;;;6.80;81.44;99301.44;5094412;28;20043;-69
2021/01/23 09:29:00;;;;;;;12.83;8.80;;;6.80;99.90;;;7.06;81.33;99336.09;5076238;28;20073;-71
2021/01/23 09:31:28;;;;;;;12.77;9.20;;;6.80;99.90;;;7.05;81.45;99330.84;5094375;28;20048;-72
2021/01/23 09:33:56;;;;;;;13.10;8.53;;;6.80;99.90;;;7.09;81.44;99333.41;5094178;28;20111;-72
2021/01/23 09:36:24;;;;;;;13.03;9.07;;;6.90;99.90;;;7.14;81.13;99338.59;5094526;28;20131;-73
2021/01/23 09:38:51;;;;;;;13.23;9.13;;;6.90;99.90;;;7.02;81.17;99337.03;5094186;28;20138;-72
2021/01/23 09:41:18;;;;;;;14.50;9.43;;;6.90;99.90;;;6.99;80.82;99331.78;5094227;28;20122;-72
2021/01/23 09:43:46;;;;;;;11.60;8.63;;;6.90;99.90;;;6.90;81.72;99341.56;5093922;28;20481;-73
2021/01/23 09:46:14;;;;;;;14.37;8.60;;;6.80;99.90;;;7.00;82.22;99353.69;5093945;28;20040;-70
2021/01/23 09:48:42;;;;;;;12.37;8.37;;;6.80;99.90;;;7.05;82.12;99336.97;5075657;28;20056;-70
2021/01/23 09:51:10;;;;;;;14.73;10.43;;;6.90;99.90;;;7.24;82.01;99337.53;5094324;28;20120;-70
2021/01/23 09:53:37;;;;;;;11.33;9.23;;;7.00;99.90;;;7.61;82.51;99348.31;5093986;28;20122;-69
2021/01/23 09:56:05;;;;;;;13.23;9.13;;;7.30;99.90;;;7.88;80.66;99359.25;5075753;28;20048;-68
2021/01/23 09:58:33;;;;;;;12.52;8.20;;;7.60;99.90;;;8.08;79.56;99349.22;5093684;28;20039;-69
2021/01/23 10:01:01;;;;;;;12.93;7.85;;;7.90;99.90;;;7.59;78.83;99235.22;5093567;28;20064;-70
2021/01/23 10:03:29;;;;;;;12.65;8.32;;;8.00;99.90;;;8.62;78.15;99349.03;5093482;28;20070;-71
2021/01/23 10:05:57;;;;;;;12.93;8.27;;;8.30;99.90;;;8.46;77.01;99318.66;5093592;28;20126;-71
2021/01/23 10:08:25;;;;;;;13.68;7.75;;;8.40;99.90;;;8.99;76.55;99342.94;5093719;28;20047;-70
2021/01/23 10:10:53;;;;;;;13.25;7.63;;;8.70;99.90;;;9.20;74.49;99316.97;5093394;28;20051;-74
2021/01/23 10:13:20;;;;;;;10.13;7.10;;;9.00;99.90;;;9.73;74.03;99346.44;5093373;28;20056;-73
2021/01/23 10:15:48;;;;;;;11.60;7.47;;;9.40;99.90;;;10.18;71.99;99349.63;5093705;28;20039;-73
2021/01/23 10:18:15;;;;;;;8.45;6.28;;;9.90;99.90;;;10.45;70.81;99348.03;5093477;28;20056;-73
2021/01/23 10:20:43;;;;;;;8.68;6.70;;;10.20;99.90;;;10.66;69.62;99355.34;5092929;28;20398;-73
2021/01/23 10:23:12;;;;;;;13.00;7.57;;;10.40;99.90;;;10.78;68.76;99347.06;5093177;28;20076;-73
2021/01/23 10:25:40;;;;;;;14.38;7.00;;;10.60;99.90;;;11.09;67.88;99357.56;5093365;28;20124;-74
2021/01/23 10:28:08;;;;;;;8.63;6.70;;;10.80;99.90;;;10.95;67.14;99326.25;5093172;28;20040;-74
2021/01/23 10:30:35;;;;;;;10.73;6.68;;;11.00;99.90;;;11.38;66.35;99353.06;5075150;28;20048;-73
2021/01/23 10:33:03;;;;;;;13.73;7.25;;;11.20;99.90;;;11.01;65.92;99265.22;5093010;28;20089;-74
2021/01/23 10:35:32;;;;;;;11.88;6.75;;;11.30;99.90;;;11.72;65.43;99350.25;5093209;28;20385;-73